Time;durP1;ratioP1;P1;durP2;ratioP2;P2;SDS_P1;SDS_P2;PMS_P1;PMS_P2;Temp;Humidity;BMP_temperature;BMP_pressure;BME280_temperature;BME280_humidity;BME280_pressure;Samples;Min_cycle;Max_cycle;Signal;HPM_P1;HPM_P2
2022/12/14 00:01:22;;;;;;;88.50;41.20;;;;;;;-7.91;82.05;100262.74;102898;1329;36534;-76
2022/12/14 00:03:56;;;;;;;86.60;43.50;;;;;;;-7.92;82.34;100263.73;102803;1329;37246;-74
2022/12/14 00:06:32;;;;;;;78.80;38.50;;;;;;;-7.90;82.41;100261.42;102898;1331;37122;-74
2022/12/14 00:09:06;;;;;;;85.40;41.90;;;;;;;-7.88;82.53;100264.55;102906;1329;37313;-74
2022/12/14 00:11:42;;;;;;;86.60;41.40;;;;;;;-7.85;82.55;100261.07;102902;1329;37223;-75
2022/12/14 00:14:16;;;;;;;77.10;39.40;;;;;;;-7.88;82.69;100265.23;102904;1328;37122;-73
2022/12/14 00:16:50;;;;;;;76.80;38.40;;;;;;;-7.90;82.36;100262.41;102937;1329;37229;-73
2022/12/14 00:19:24;;;;;;;72.60;35.20;;;;;;;-7.95;82.05;100264.64;102936;1331;37116;-74
2022/12/14 00:21:57;;;;;;;69.00;35.50;;;;;;;-7.99;81.99;100265.33;102847;1329;38150;-75
2022/12/14 00:24:31;;;;;;;66.00;35.20;;;;;;;-7.98;82.26;100261.13;102703;1333;37309;-75
2022/12/14 00:27:06;;;;;;;75.50;37.00;;;;;;;-8.01;82.17;100258.16;102894;1328;37147;-75
2022/12/14 00:29:39;;;;;;;73.90;36.90;;;;;;;-8.05;81.93;100254.45;102935;1332;37158;-75
2022/12/14 00:32:13;;;;;;;75.10;36.90;;;;;;;-8.11;81.76;100255.95;102898;1331;37443;-75
2022/12/14 00:34:53;;;;;;;71.80;36.90;;;;;;;-8.21;81.81;100252.05;102840;1329;37706;-72
2022/12/14 00:37:27;;;;;;;75.70;35.80;;;;;;;-8.28;81.69;100249.77;102896;1328;36537;-75
2022/12/14 00:40:00;;;;;;;73.00;37.50;;;;;;;-8.32;81.57;100252.51;102787;1330;37517;-74
2022/12/14 00:42:34;;;;;;;74.60;38.80;;;;;;;-8.35;81.44;100255.79;102786;1332;37098;-74
2022/12/14 00:45:10;;;;;;;83.80;39.20;;;;;;;-8.36;81.46;100257.64;102873;1329;37284;-73
2022/12/14 00:47:44;;;;;;;86.50;40.40;;;;;;;-8.39;81.32;100255.83;102822;1329;175583;-74
2022/12/14 00:50:18;;;;;;;92.10;43.50;;;;;;;-8.47;81.17;100258.96;102926;1332;37606;-74
2022/12/14 00:52:52;;;;;;;85.90;40.90;;;;;;;-8.54;81.31;100261.71;102913;1329;37137;-74
2022/12/14 00:55:26;;;;;;;81.40;40.80;;;;;;;-8.62;81.11;100259.39;102899;1329;37267;-73
2022/12/14 00:58:00;;;;;;;78.00;38.80;;;;;;;-8.68;81.16;100260.69;102944;1332;37163;-74
2022/12/14 01:00:34;;;;;;;76.10;37.10;;;;;;;-8.71;81.11;100261.41;102892;1332;37341;-74
2022/12/14 01:03:08;;;;;;;78.90;38.40;;;;;;;-8.76;81.15;100259.89;103003;1329;37288;-76
2022/12/14 01:05:42;;;;;;;76.20;38.80;;;;;;;-8.78;81.10;100255.06;102924;1332;38458;-73
2022/12/14 01:08:16;;;;;;;78.80;38.20;;;;;;;-8.85;81.07;100253.13;102951;1331;38698;-73
2022/12/14 01:10:51;;;;;;;71.20;35.60;;;;;;;-8.93;81.15;100256.05;102938;1330;36283;-73
2022/12/14 01:13:25;;;;;;;72.90;35.90;;;;;;;-9.00;80.84;100259.14;102931;1331;37128;-74
2022/12/14 01:16:03;;;;;;;65.80;33.50;;;;;;;-9.08;80.63;100262.23;102906;1329;36620;-75
2022/12/14 01:18:39;;;;;;;65.20;33.70;;;;;;;-9.14;80.67;100262.48;102810;1332;37014;-74
2022/12/14 01:21:16;;;;;;;70.10;34.70;;;;;;;-9.21;80.62;100264.05;102901;1329;36961;-75
2022/12/14 01:23:51;;;;;;;69.40;34.50;;;;;;;-9.28;80.76;100260.76;102494;1332;453933;-75
2022/12/14 01:26:25;;;;;;;67.00;33.40;;;;;;;-9.32;80.83;100257.72;102786;1329;37960;-76
2022/12/14 01:29:00;;;;;;;61.90;33.10;;;;;;;-9.36;80.97;100254.36;102905;1328;37158;-75
2022/12/14 01:31:36;;;;;;;66.30;32.60;;;;;;;-9.41;81.15;100252.83;102893;1331;37249;-76
2022/12/14 01:34:11;;;;;;;63.10;31.30;;;;;;;-9.45;80.86;100251.80;102905;1328;37359;-75
2022/12/14 01:36:45;;;;;;;59.90;31.60;;;;;;;-9.51;80.82;100250.05;102879;1330;37135;-75
2022/12/14 01:39:19;;;;;;;64.40;33.10;;;;;;;-9.55;80.81;100250.73;102839;1329;37396;-74
2022/12/14 01:41:53;;;;;;;70.20;34.40;;;;;;;-9.60;80.65;100250.36;102896;1329;37233;-74
2022/12/14 01:44:54;;;;;;;69.20;33.60;;;;;;;-9.66;80.70;100253.14;102850;1329;37150;-74
2022/12/14 01:47:36;;;;;;;68.70;33.10;;;;;;;-9.76;80.54;100251.20;102947;1328;37514;-73
2022/12/14 01:50:16;;;;;;;70.30;35.40;;;;;;;-9.82;80.60;100247.59;102922;1332;36431;-74
2022/12/14 01:52:51;;;;;;;68.70;34.50;;;;;;;-9.86;80.76;100248.95;102897;1328;36168;-74
2022/12/14 01:55:26;;;;;;;66.80;33.20;;;;;;;-9.86;81.07;100248.92;102913;1332;37559;-74
2022/12/14 01:58:04;;;;;;;67.60;34.60;;;;;;;-9.88;80.96;100255.11;102907;1331;37257;-74
2022/12/14 02:00:38;;;;;;;70.10;35.20;;;;;;;-9.90;80.89;100253.52;102905;1331;37335;-74
2022/12/14 02:03:14;;;;;;;69.70;34.90;;;;;;;-9.95;80.83;100253.48;102924;1327;37145;-74
2022/12/14 02:05:50;;;;;;;61.10;32.70;;;;;;;-10.02;80.76;100244.40;102248;1333;931824;-75
2022/12/14 02:08:24;;;;;;;71.00;34.60;;;;;;;-10.07;80.79;100244.02;102824;1329;37183;-73
2022/12/14 02:10:58;;;;;;;71.20;33.30;;;;;;;-10.11;80.41;100243.02;102884;1329;36257;-73
2022/12/14 02:13:34;;;;;;;69.20;33.10;;;;;;;-10.17;80.09;100241.91;102906;1331;36031;-73
2022/12/14 02:16:09;;;;;;;71.90;33.10;;;;;;;-10.23;79.80;100244.00;102930;1329;37466;-74
2022/12/14 02:18:43;;;;;;;72.60;34.80;;;;;;;-10.29;79.99;100241.59;102935;1331;37733;-74
2022/12/14 02:21:24;;;;;;;70.30;35.40;;;;;;;-10.34;79.97;100240.36;102901;1329;38364;-76
2022/12/14 02:24:42;;;;;;;63.30;31.30;;;;;;;-10.44;79.75;100238.42;102930;1328;37227;-74
2022/12/14 02:27:39;;;;;;;64.00;32.10;;;;;;;-10.55;80.03;100242.83;102925;1329;37155;-73
2022/12/14 02:30:16;;;;;;;60.20;28.70;;;;;;;-10.61;79.78;100243.22;102954;1333;37143;-73
2022/12/14 02:33:17;;;;;;;56.40;28.50;;;;;;;-10.66;79.81;100242.49;102906;1331;36559;-74
2022/12/14 02:35:54;;;;;;;57.40;27.60;;;;;;;-10.69;79.81;100241.86;102915;1329;38220;-73
2022/12/14 02:38:48;;;;;;;59.50;29.20;;;;;;;-10.69;79.69;100243.23;102926;1333;37321;-74
2022/12/14 02:41:26;;;;;;;50.00;25.90;;;;;;;-10.65;80.20;100247.25;102924;1329;37319;-76
2022/12/14 02:44:03;;;;;;;53.20;24.40;;;;;;;-10.62;79.89;100249.41;102905;1331;37252;-75
2022/12/14 02:46:41;;;;;;;52.40;25.80;;;;;;;-10.59;80.06;100249.23;102867;1329;37241;-76
2022/12/14 02:49:19;;;;;;;56.00;27.20;;;;;;;-10.55;79.88;100250.92;102929;1332;38316;-72
2022/12/14 02:51:57;;;;;;;53.30;26.20;;;;;;;-10.54;79.72;100252.33;102899;1329;37226;-73
2022/12/14 02:54:35;;;;;;;51.60;26.70;;;;;;;-10.49;79.61;100251.34;102902;1332;37286;-75
2022/12/14 02:57:13;;;;;;;49.40;24.20;;;;;;;-10.51;79.41;100254.44;102874;1332;37456;-75
2022/12/14 02:59:47;;;;;;;50.80;25.80;;;;;;;-10.52;79.06;100255.11;102954;1329;37190;-73
2022/12/14 03:02:21;;;;;;;51.10;23.70;;;;;;;-10.52;79.24;100254.40;102924;1329;37214;-73
2022/12/14 03:04:55;;;;;;;45.20;22.80;;;;;;;-10.52;79.25;100257.30;102969;1331;37231;-74
2022/12/14 03:07:40;;;;;;;45.30;22.80;;;;;;;-10.52;78.88;100255.23;102891;1333;37384;-74
2022/12/14 03:10:24;;;;;;;52.80;25.70;;;;;;;-10.55;78.70;100254.63;102950;1327;36387;-75
2022/12/14 03:13:01;;;;;;;49.70;24.60;;;;;;;-10.58;78.69;100258.71;102992;1329;37280;-74
2022/12/14 03:15:35;;;;;;;54.10;26.70;;;;;;;-10.63;78.74;100257.44;102917;1331;37657;-74
2022/12/14 03:18:09;;;;;;;53.80;25.90;;;;;;;-10.71;78.77;100254.42;102939;1329;37149;-74
2022/12/14 03:20:43;;;;;;;55.00;26.00;;;;;;;-10.75;79.03;100251.88;102906;1327;36974;-75
2022/12/14 03:23:19;;;;;;;53.00;25.00;;;;;;;-10.81;79.32;100246.55;102917;1327;37227;-72
2022/12/14 03:25:58;;;;;;;50.80;26.30;;;;;;;-10.90;79.04;100249.48;102914;1328;37290;-73
2022/12/14 03:28:34;;;;;;;50.70;24.20;;;;;;;-10.98;78.90;100254.55;102957;1331;38410;-73
2022/12/14 03:31:11;;;;;;;45.80;23.80;;;;;;;-11.05;78.78;100257.23;102922;1331;37251;-74
2022/12/14 03:33:45;;;;;;;47.50;22.90;;;;;;;-11.12;78.91;100258.79;102911;1329;36200;-75
2022/12/14 03:36:22;;;;;;;44.30;21.60;;;;;;;-11.14;78.84;100260.52;102904;1328;37342;-75
2022/12/14 03:38:57;;;;;;;39.70;20.70;;;;;;;-11.15;79.03;100259.44;102919;1329;36376;-75
2022/12/14 03:41:34;;;;;;;42.80;19.90;;;;;;;-11.12;79.10;100261.44;102877;1329;37252;-75
2022/12/14 03:44:23;;;;;;;42.10;22.50;;;;;;;-11.09;79.05;100256.39;102923;1329;37395;-74
2022/12/14 03:47:01;;;;;;;42.00;20.60;;;;;;;-11.07;79.46;100260.70;102914;1331;37144;-74
2022/12/14 03:49:46;;;;;;;43.50;20.90;;;;;;;-11.03;79.11;100265.27;102956;1331;37123;-74
2022/12/14 03:52:24;;;;;;;40.40;20.50;;;;;;;-10.97;79.15;100262.19;102918;1331;37353;-74
2022/12/14 03:55:05;;;;;;;38.90;20.70;;;;;;;-10.97;79.16;100263.17;102954;1331;37335;-74
2022/12/14 03:57:51;;;;;;;38.70;21.10;;;;;;;-10.99;79.12;100263.59;102942;1329;37281;-75
2022/12/14 04:00:26;;;;;;;44.70;21.30;;;;;;;-10.97;79.12;100265.88;102934;1329;37115;-75
2022/12/14 04:03:09;;;;;;;41.20;20.20;;;;;;;-10.90;79.15;100263.64;102972;1331;37219;-73
2022/12/14 04:05:46;;;;;;;39.30;20.90;;;;;;;-10.82;78.96;100268.22;102937;1328;37291;-74
2022/12/14 04:08:24;;;;;;;41.10;20.20;;;;;;;-10.82;78.77;100272.61;102895;1332;38877;-74
2022/12/14 04:19:44;;;;;;;47.30;23.10;;;;;;;-10.77;79.43;100256.00;102816;1329;38147;-73
2022/12/14 04:22:21;;;;;;;48.00;23.60;;;;;;;-10.72;79.51;100255.52;102910;1330;36928;-73
2022/12/14 04:27:53;;;;;;;48.20;24.80;;;;;;;-10.86;78.87;100244.81;102840;1331;36670;-73
2022/12/14 04:30:27;;;;;;;44.80;23.20;;;;;;;-10.92;78.91;100247.71;102929;1328;37733;-75
2022/12/14 04:33:45;;;;;;;50.30;24.70;;;;;;;-11.00;79.02;100249.73;102924;1331;36973;-74
2022/12/14 04:35:57;;;;;;;46.00;22.90;;;;;;;-11.05;79.10;100252.19;102893;1328;37308;-73
2022/12/14 04:38:34;;;;;;;46.70;22.50;;;;;;;-11.12;78.85;100256.75;102894;1330;37273;-74
2022/12/14 04:41:11;;;;;;;45.10;21.70;;;;;;;-11.15;79.09;100257.09;102840;1329;37393;-74
2022/12/14 04:43:46;;;;;;;45.90;23.00;;;;;;;-11.15;79.47;100259.13;102952;1331;36961;-75
2022/12/14 04:46:23;;;;;;;42.10;22.00;;;;;;;-11.11;79.48;100260.98;102952;1331;37379;-74
2022/12/14 04:49:01;;;;;;;42.30;20.90;;;;;;;-11.08;79.29;100256.27;102966;1329;37149;-73
2022/12/14 04:51:38;;;;;;;40.70;20.90;;;;;;;-11.03;79.73;100257.14;102961;1332;37225;-75
2022/12/14 04:54:17;;;;;;;43.80;21.00;;;;;;;-11.01;79.32;100261.65;102848;1333;36602;-73
2022/12/14 04:56:53;;;;;;;42.50;21.80;;;;;;;-10.93;79.60;100260.65;102920;1327;37263;-72
2022/12/14 04:59:27;;;;;;;40.80;21.30;;;;;;;-10.84;79.57;100259.55;102939;1331;37566;-75
2022/12/14 05:02:06;;;;;;;47.10;21.70;;;;;;;-10.69;79.85;100258.23;102881;1331;37340;-76
2022/12/14 05:04:54;;;;;;;;;;;;;;;-10.57;79.56;100250.16;102926;1331;37202;-74
2022/12/14 05:07:36;;;;;;;43.30;22.60;;;;;;;-10.45;79.76;100247.33;102890;1331;37191;-74
2022/12/14 05:10:14;;;;;;;44.50;23.20;;;;;;;-10.31;79.76;100243.70;102995;1329;37280;-73
2022/12/14 05:12:52;;;;;;;49.90;24.60;;;;;;;-10.20;79.59;100236.88;102928;1330;37417;-70
2022/12/14 05:15:28;;;;;;;48.50;23.70;;;;;;;-10.13;79.61;100232.30;102930;1329;37655;-75
2022/12/14 05:18:04;;;;;;;46.00;22.60;;;;;;;-10.02;79.61;100234.09;102725;1333;175718;-74
2022/12/14 05:20:38;;;;;;;47.40;24.50;;;;;;;-9.98;79.41;100234.13;102964;1329;37360;-74
2022/12/14 05:23:12;;;;;;;48.60;24.40;;;;;;;-9.97;79.44;100232.61;102824;1329;37213;-74
2022/12/14 05:25:47;;;;;;;51.90;25.20;;;;;;;-10.01;79.36;100231.42;102973;1330;36250;-73
2022/12/14 05:28:21;;;;;;;48.90;24.20;;;;;;;-10.07;79.48;100234.38;102913;1331;37311;-76
2022/12/14 05:30:55;;;;;;;46.60;23.90;;;;;;;-10.12;79.55;100234.69;102959;1331;37145;-75
2022/12/14 05:33:29;;;;;;;43.50;23.00;;;;;;;-10.17;79.54;100233.98;103004;1331;37205;-74
2022/12/14 05:36:03;;;;;;;42.10;21.10;;;;;;;-10.22;79.46;100235.47;102832;1332;37372;-72
2022/12/14 05:38:38;;;;;;;44.90;21.50;;;;;;;-10.26;79.45;100241.37;102995;1331;37356;-74
2022/12/14 05:41:11;;;;;;;38.40;21.00;;;;;;;-10.28;79.40;100242.30;102991;1331;38455;-74
2022/12/14 05:43:45;;;;;;;35.80;18.20;;;;;;;-10.32;79.35;100242.96;102984;1331;37366;-74
2022/12/14 05:46:19;;;;;;;37.00;19.20;;;;;;;-10.34;79.09;100240.52;102933;1329;36116;-72
2022/12/14 05:48:53;;;;;;;36.40;18.80;;;;;;;-10.33;79.03;100245.77;102918;1328;37127;-73
2022/12/14 05:51:27;;;;;;;35.90;19.10;;;;;;;-10.34;78.81;100247.63;102944;1331;36155;-76
2022/12/14 05:54:01;;;;;;;32.10;18.10;;;;;;;-10.36;78.71;100242.78;102863;1333;37296;-75
2022/12/14 05:56:37;;;;;;;36.30;18.80;;;;;;;-10.42;78.38;100244.57;102918;1329;37274;-75
2022/12/14 05:59:14;;;;;;;34.10;19.70;;;;;;;-10.49;78.10;100245.92;102855;1332;37130;-73
2022/12/14 06:01:48;;;;;;;34.80;19.00;;;;;;;-10.49;78.20;100250.34;102799;1332;175403;-73
2022/12/14 06:04:23;;;;;;;36.30;18.50;;;;;;;-10.50;78.11;100247.79;102831;1329;37263;-75
2022/12/14 06:06:57;;;;;;;34.60;18.30;;;;;;;-10.54;77.99;100252.30;102911;1331;37404;-76
2022/12/14 06:09:31;;;;;;;34.40;19.30;;;;;;;-10.59;77.94;100256.27;102910;1330;37383;-74
2022/12/14 06:12:05;;;;;;;40.80;20.50;;;;;;;-10.61;78.30;100259.89;102917;1333;37308;-75
2022/12/14 06:14:41;;;;;;;40.50;20.70;;;;;;;-10.68;78.07;100257.73;102958;1329;36319;-74
2022/12/14 06:17:16;;;;;;;40.60;20.80;;;;;;;-10.82;77.62;100262.02;102915;1331;37152;-74
2022/12/14 06:19:50;;;;;;;39.50;20.50;;;;;;;-10.95;77.49;100264.62;102954;1331;37319;-74
2022/12/14 06:22:24;;;;;;;37.60;19.40;;;;;;;-11.07;77.78;100269.95;102929;1329;36982;-75
2022/12/14 06:24:58;;;;;;;34.30;19.20;;;;;;;-11.19;77.68;100267.37;103004;1330;37147;-75
2022/12/14 06:27:32;;;;;;;39.40;19.60;;;;;;;-11.27;77.77;100258.07;102849;1329;37165;-74
2022/12/14 06:30:08;;;;;;;37.00;19.20;;;;;;;-11.33;78.08;100258.12;102914;1329;37114;-72
2022/12/14 06:32:43;;;;;;;36.20;19.30;;;;;;;-11.36;78.14;100261.17;102861;1333;37174;-72
2022/12/14 06:35:22;;;;;;;40.80;20.60;;;;;;;-11.35;78.34;100258.00;102936;1329;37228;-74
2022/12/14 06:37:55;;;;;;;42.80;20.60;;;;;;;-11.28;78.86;100260.20;102912;1331;37438;-73
2022/12/14 06:40:30;;;;;;;43.20;21.20;;;;;;;-11.18;79.21;100257.33;102885;1328;36600;-75
2022/12/14 06:43:06;;;;;;;39.50;19.90;;;;;;;-11.14;78.96;100264.38;102944;1329;37487;-74
2022/12/14 06:45:40;;;;;;;42.30;20.70;;;;;;;-11.12;78.98;100266.52;102956;1331;37793;-74
2022/12/14 06:48:14;;;;;;;35.70;19.20;;;;;;;-11.11;78.51;100270.77;102995;1331;37136;-75
2022/12/14 06:50:48;;;;;;;37.80;19.00;;;;;;;-11.07;79.04;100269.79;102985;1333;37243;-74
2022/12/14 06:53:23;;;;;;;38.10;19.90;;;;;;;-11.02;78.87;100268.99;102993;1331;37786;-73
2022/12/14 06:56:06;;;;;;;31.90;17.70;;;;;;;-10.97;78.65;100272.09;102982;1329;37353;-73
2022/12/14 06:58:41;;;;;;;36.90;19.90;;;;;;;-10.92;78.70;100273.36;102962;1328;37224;-73
2022/12/14 07:01:16;;;;;;;32.00;18.10;;;;;;;-10.90;78.43;100270.25;102952;1331;37214;-74
2022/12/14 07:03:53;;;;;;;34.30;18.20;;;;;;;-10.90;78.19;100274.25;102960;1333;36955;-73
2022/12/14 07:06:31;;;;;;;33.00;17.40;;;;;;;-10.89;78.27;100271.96;103010;1331;36169;-74
2022/12/14 07:09:06;;;;;;;38.10;19.70;;;;;;;-10.85;78.15;100272.13;102960;1328;36541;-74
2022/12/14 07:11:40;;;;;;;37.60;20.40;;;;;;;-10.78;77.78;100275.98;102937;1327;37378;-74
2022/12/14 07:14:17;;;;;;;37.10;21.50;;;;;;;-10.78;77.62;100277.48;102890;1332;37184;-74
2022/12/14 07:16:51;;;;;;;42.90;22.10;;;;;;;-10.84;77.43;100271.02;102798;1333;175744;-73
2022/12/14 07:19:25;;;;;;;41.50;21.40;;;;;;;-10.80;77.86;100276.94;102964;1329;37150;-74
2022/12/14 07:22:03;;;;;;;43.70;22.40;;;;;;;-10.84;77.67;100280.27;102940;1327;38602;-73
2022/12/14 07:24:37;;;;;;;43.20;22.90;;;;;;;-10.88;77.44;100279.57;102894;1329;37556;-73
2022/12/14 07:27:11;;;;;;;44.30;22.30;;;;;;;-10.95;77.32;100280.95;102918;1331;38003;-74
2022/12/14 07:29:45;;;;;;;41.90;21.80;;;;;;;-11.02;77.47;100278.59;102939;1331;37240;-74
2022/12/14 07:32:20;;;;;;;44.40;21.50;;;;;;;-11.06;77.57;100281.80;102894;1331;36605;-74
2022/12/14 07:34:54;;;;;;;40.80;21.10;;;;;;;-11.07;77.57;100281.73;102910;1331;37251;-74
2022/12/14 07:37:28;;;;;;;38.90;20.20;;;;;;;-11.05;77.74;100285.19;102932;1329;36243;-74
2022/12/14 07:40:03;;;;;;;36.70;19.00;;;;;;;-10.99;78.12;100283.42;102945;1330;37298;-72
2022/12/14 07:42:40;;;;;;;39.30;20.00;;;;;;;-10.89;78.16;100285.79;102984;1328;37253;-72
2022/12/14 07:45:14;;;;;;;32.50;19.00;;;;;;;-10.79;78.11;100285.40;102857;1332;189185;-75
2022/12/14 07:47:49;;;;;;;34.70;19.20;;;;;;;-10.63;78.30;100281.56;102859;1329;37272;-75
2022/12/14 07:50:24;;;;;;;38.60;19.80;;;;;;;-10.50;78.31;100279.97;102963;1332;37210;-76
2022/12/14 07:52:58;;;;;;;36.80;19.20;;;;;;;-10.37;78.43;100278.84;98587;1332;3011059;-74
2022/12/14 07:55:33;;;;;;;38.70;19.90;;;;;;;-10.24;78.43;100276.02;102831;1332;38893;-74
2022/12/14 07:58:07;;;;;;;41.00;19.60;;;;;;;-10.10;78.45;100273.75;102908;1331;37817;-73
2022/12/14 08:00:41;;;;;;;40.60;21.20;;;;;;;-10.03;78.38;100272.21;102910;1329;37277;-73
2022/12/14 08:03:15;;;;;;;40.60;20.90;;;;;;;-9.97;78.32;100266.85;102930;1327;37331;-72
2022/12/14 08:05:49;;;;;;;45.90;22.90;;;;;;;-9.91;78.44;100270.32;102906;1329;37225;-71
2022/12/14 08:08:23;;;;;;;49.10;26.40;;;;;;;-9.85;78.78;100272.45;102844;1329;36589;-71
2022/12/14 08:10:58;;;;;;;48.30;26.20;;;;;;;-9.81;78.75;100275.11;102915;1331;36669;-72
2022/12/14 08:13:33;;;;;;;49.30;25.70;;;;;;;-9.78;79.14;100277.82;102957;1332;37215;-72
2022/12/14 08:16:11;;;;;;;49.80;26.40;;;;;;;-9.74;79.20;100272.92;102912;1329;37391;-73
2022/12/14 08:18:49;;;;;;;47.80;25.80;;;;;;;-9.69;79.42;100269.41;102876;1330;175377;-72
2022/12/14 08:21:23;;;;;;;50.50;25.70;;;;;;;-9.65;79.37;100273.45;102935;1331;37428;-72
2022/12/14 08:23:58;;;;;;;46.30;24.10;;;;;;;-9.62;79.50;100271.56;102957;1329;38541;-72
2022/12/14 08:26:32;;;;;;;47.20;25.20;;;;;;;-9.55;79.66;100272.00;102929;1331;37409;-73
2022/12/14 08:29:08;;;;;;;52.50;27.90;;;;;;;-9.45;79.90;100268.02;102977;1329;37408;-72
2022/12/14 08:31:43;;;;;;;54.90;27.60;;;;;;;-9.35;79.98;100263.88;102934;1329;37266;-72
2022/12/14 08:34:21;;;;;;;59.40;30.30;;;;;;;-9.27;80.15;100264.15;102957;1331;37235;-74
2022/12/14 08:36:54;;;;;;;;;;;;;;;-9.20;80.41;100271.05;102929;1331;37339;-74
2022/12/14 08:39:28;;;;;;;52.90;27.00;;;;;;;-9.16;80.67;100273.41;102917;1329;36780;-77
2022/12/14 08:42:02;;;;;;;57.70;28.90;;;;;;;-9.07;80.99;100272.04;102842;1328;175669;-76
2022/12/14 08:44:36;;;;;;;54.40;26.90;;;;;;;-8.99;81.04;100272.38;102935;1330;37147;-76
2022/12/14 08:47:10;;;;;;;53.60;28.40;;;;;;;-8.88;81.05;100277.20;102907;1331;37504;-77
2022/12/14 08:49:45;;;;;;;50.80;28.00;;;;;;;-8.75;81.18;100270.77;102941;1329;36159;-76
2022/12/14 08:52:21;;;;;;;61.10;31.10;;;;;;;-8.60;81.46;100267.60;102924;1331;37160;-76
2022/12/14 08:54:55;;;;;;;58.20;32.80;;;;;;;-8.44;81.94;100257.36;102940;1327;38571;-74
2022/12/14 08:57:28;;;;;;;63.80;33.00;;;;;;;-8.25;82.36;100257.30;102943;1331;37241;-74
2022/12/14 09:00:02;;;;;;;68.50;35.50;;;;;;;-8.11;82.31;100253.75;102941;1331;36176;-75
2022/12/14 09:02:36;;;;;;;60.80;32.50;;;;;;;-7.97;82.10;100258.31;102809;1332;37153;-75
2022/12/14 09:05:11;;;;;;;57.30;31.10;;;;;;;-7.85;81.92;100258.02;102937;1331;37398;-73
2022/12/14 09:07:45;;;;;;;67.00;36.40;;;;;;;-7.71;81.90;100256.98;102573;1336;175561;-74
2022/12/14 09:10:19;;;;;;;66.60;35.50;;;;;;;-7.56;82.10;100255.77;102932;1333;36880;-75
2022/12/14 09:12:53;;;;;;;125.00;62.50;;;;;;;-7.43;82.16;100251.12;102906;1331;37391;-74
2022/12/14 09:15:27;;;;;;;120.70;63.70;;;;;;;-7.29;82.26;100249.02;102905;1329;38313;-76
2022/12/14 09:18:01;;;;;;;76.70;39.80;;;;;;;-7.14;82.17;100245.27;102834;1330;37251;-75
2022/12/14 09:20:34;;;;;;;54.50;30.00;;;;;;;-6.92;82.46;100243.05;102882;1331;37132;-74
2022/12/14 09:23:09;;;;;;;67.90;34.40;;;;;;;-6.65;82.21;100245.04;102730;1328;255760;-75
2022/12/14 09:25:43;;;;;;;70.10;38.00;;;;;;;-6.43;81.90;100238.54;102908;1329;37498;-75
2022/12/14 09:28:16;;;;;;;54.60;29.00;;;;;;;-6.19;81.88;100231.89;102920;1333;37623;-75
2022/12/14 09:30:56;;;;;;;53.10;29.00;;;;;;;-5.95;81.74;100231.34;102909;1331;37347;-75
2022/12/14 09:33:30;;;;;;;46.50;27.20;;;;;;;-5.70;80.97;100228.05;102740;1329;175016;-74
2022/12/14 09:36:06;;;;;;;42.90;24.00;;;;;;;-5.46;80.72;100228.13;102884;1332;37407;-74
2022/12/14 09:38:40;;;;;;;40.00;23.60;;;;;;;-5.25;80.05;100221.50;102919;1331;37276;-75
2022/12/14 09:41:30;;;;;;;44.10;25.40;;;;;;;-5.03;79.79;100210.42;102789;1329;37256;-77
2022/12/14 09:44:10;;;;;;;43.70;24.20;;;;;;;-4.76;79.57;100209.13;102899;1333;37254;-76
2022/12/14 09:46:53;;;;;;;41.80;22.20;;;;;;;-4.51;78.99;100205.40;102900;1329;38420;-76
2022/12/14 09:49:31;;;;;;;40.10;24.10;;;;;;;-4.23;78.30;100209.36;102799;1329;37244;-73
2022/12/14 09:52:06;;;;;;;42.00;24.10;;;;;;;-3.89;78.21;100207.76;102906;1327;37390;-74
2022/12/14 09:54:41;;;;;;;48.00;25.80;;;;;;;-3.60;77.11;100207.91;102926;1328;37345;-78
2022/12/14 09:57:24;;;;;;;44.20;26.20;;;;;;;-3.37;75.90;100194.31;102918;1331;37795;-75
2022/12/14 09:59:59;;;;;;;41.70;25.70;;;;;;;-3.05;75.75;100189.14;102812;1330;36217;-71
2022/12/14 10:02:43;;;;;;;43.40;25.10;;;;;;;-2.66;75.91;100184.52;102888;1331;37229;-74
2022/12/14 10:05:36;;;;;;;43.00;26.40;;;;;;;-2.29;74.93;100182.40;102920;1329;38461;-75
2022/12/14 10:08:16;;;;;;;43.20;26.70;;;;;;;-1.94;74.18;100180.89;102825;1333;38329;-74
2022/12/14 10:10:56;;;;;;;48.30;28.60;;;;;;;-1.61;74.23;100179.98;102929;1329;37370;-72
2022/12/14 10:13:40;;;;;;;43.30;27.40;;;;;;;-1.31;73.33;100173.71;102942;1329;37229;-73
2022/12/14 10:16:22;;;;;;;40.60;25.10;;;;;;;-1.00;72.75;100169.11;102908;1328;37225;-73
2022/12/14 10:19:06;;;;;;;43.40;25.90;;;;;;;-0.64;72.73;100164.84;102973;1329;37348;-74
2022/12/14 10:21:47;;;;;;;40.60;24.60;;;;;;;-0.46;71.77;100163.86;102777;1333;37449;-74
2022/12/14 10:24:25;;;;;;;39.60;24.00;;;;;;;-0.49;70.51;100161.47;102960;1331;37259;-74
2022/12/14 10:26:59;;;;;;;40.60;25.00;;;;;;;-0.60;70.73;100155.08;102891;1329;37264;-76
2022/12/14 10:29:37;;;;;;;38.20;23.80;;;;;;;-0.81;70.42;100156.19;102908;1327;37237;-76
2022/12/14 10:32:22;;;;;;;41.40;24.50;;;;;;;-1.06;69.47;100152.48;102905;1329;37225;-76
2022/12/14 10:34:57;;;;;;;42.10;26.20;;;;;;;-1.42;69.71;100145.73;102904;1331;36881;-77
2022/12/14 10:37:35;;;;;;;44.20;25.70;;;;;;;-1.69;70.13;100145.02;102903;1331;37349;-77
2022/12/14 10:40:23;;;;;;;40.90;25.20;;;;;;;-1.96;70.44;100137.63;102900;1330;37992;-75
2022/12/14 10:43:08;;;;;;;43.00;25.70;;;;;;;-2.21;70.86;100133.98;102945;1332;37286;-75
2022/12/14 10:45:45;;;;;;;45.30;26.40;;;;;;;-2.41;71.19;100129.84;102902;1331;37242;-76
2022/12/14 10:48:38;;;;;;;40.60;24.40;;;;;;;-2.61;71.37;100128.23;102834;1329;38332;-77
2022/12/14 10:51:16;;;;;;;46.80;27.30;;;;;;;-2.80;71.39;100123.76;102873;1328;37216;-78
2022/12/14 10:53:52;;;;;;;51.80;28.60;;;;;;;-2.94;71.44;100121.20;102898;1331;37148;-77
2022/12/14 10:56:30;;;;;;;45.70;26.20;;;;;;;-3.06;71.62;100113.70;102840;1329;38426;-77
2022/12/14 10:59:28;;;;;;;43.90;26.10;;;;;;;-3.15;71.69;100108.81;102922;1331;37257;-76
2022/12/14 11:02:07;;;;;;;45.30;25.70;;;;;;;-3.21;71.74;100106.69;102944;1331;37232;-77
2022/12/14 11:04:44;;;;;;;49.00;27.40;;;;;;;-3.31;71.48;100102.45;102690;1334;37332;-76
2022/12/14 11:07:21;;;;;;;45.40;27.90;;;;;;;-3.39;72.30;100096.54;102931;1327;37174;-76
2022/12/14 11:09:56;;;;;;;48.80;27.80;;;;;;;-3.49;72.03;100094.02;102845;1329;37333;-74
2022/12/14 11:12:31;;;;;;;45.70;25.50;;;;;;;-3.58;72.30;100088.27;102919;1329;38321;-74
2022/12/14 11:15:22;;;;;;;40.60;23.50;;;;;;;-3.63;72.35;100082.91;102954;1333;37269;-76
2022/12/14 11:18:05;;;;;;;42.00;24.50;;;;;;;-3.68;72.65;100081.98;102957;1330;37254;-76
2022/12/14 11:20:41;;;;;;;48.90;26.50;;;;;;;-3.72;72.57;100075.77;102894;1333;37191;-77
2022/12/14 11:23:21;;;;;;;71.50;33.20;;;;;;;-3.76;72.75;100074.88;102850;1329;37681;-76
2022/12/14 11:25:58;;;;;;;65.40;32.60;;;;;;;-3.76;73.04;100075.39;102901;1329;37500;-75
2022/12/14 11:28:35;;;;;;;52.20;26.90;;;;;;;-3.76;73.09;100071.45;102924;1331;37149;-75
2022/12/14 11:31:10;;;;;;;63.10;32.60;;;;;;;-3.79;72.81;100061.36;102849;1333;36253;-75
2022/12/14 11:33:49;;;;;;;48.10;26.20;;;;;;;-3.82;72.62;100061.84;102933;1329;37460;-76
2022/12/14 11:36:36;;;;;;;96.50;47.60;;;;;;;-3.86;72.61;100056.84;102905;1331;37305;-77
2022/12/14 11:39:21;;;;;;;51.00;28.20;;;;;;;-3.85;72.92;100050.88;102945;1331;37291;-75
2022/12/14 11:42:03;;;;;;;53.90;28.70;;;;;;;-3.84;73.02;100049.70;102931;1329;36496;-75
2022/12/14 11:44:38;;;;;;;55.60;30.40;;;;;;;-3.85;73.25;100043.90;102841;1330;37344;-77
2022/12/14 11:47:15;;;;;;;61.90;32.10;;;;;;;-3.88;73.03;100040.43;102839;1331;36402;-77
2022/12/14 11:49:53;;;;;;;55.40;29.80;;;;;;;-3.92;73.00;100039.35;102920;1331;37186;-78
2022/12/14 11:52:39;;;;;;;50.40;28.60;;;;;;;-3.93;73.28;100037.80;102807;1333;37655;-78